Time;durP1;ratioP1;P1;durP2;ratioP2;P2;SDS_P1;SDS_P2;PMS_P1;PMS_P2;Temp;Humidity;BMP_temperature;BMP_pressure;BME280_temperature;BME280_humidity;BME280_pressure;Samples;Min_cycle;Max_cycle;Signal;HPM_P1;HPM_P2
2022/04/03 00:01:29;;;;;;;4.20;1.17;;;;;;;10.41;46.82;101920.34;5052138;28;20049;-79
2022/04/03 00:03:55;;;;;;;1.92;0.70;;;;;;;10.40;46.85;101916.88;5050049;28;20399;-80
2022/04/03 00:06:22;;;;;;;1.38;0.80;;;;;;;10.40;47.04;101923.91;5053927;28;20064;-79
2022/04/03 00:08:50;;;;;;;3.15;0.80;;;;;;;10.40;46.35;101923.91;5043615;28;20545;-79
2022/04/03 00:11:17;;;;;;;1.88;0.75;;;;;;;10.39;46.65;101927.47;5054184;28;20065;-80
2022/04/03 00:13:44;;;;;;;2.60;0.90;;;;;;;10.40;46.85;101929.16;5048056;28;20121;-79
2022/04/03 00:16:11;;;;;;;1.88;0.70;;;;;;;10.39;46.40;101924.84;5054882;28;20119;-79
2022/04/03 00:18:38;;;;;;;1.85;0.85;;;;;;;10.40;47.15;101926.53;5049441;28;20131;-80
2022/04/03 00:21:05;;;;;;;1.83;1.05;;;;;;;10.38;46.64;101921.38;5055241;28;20080;-79
2022/04/03 00:23:32;;;;;;;1.83;0.80;;;;;;;10.39;47.05;101919.59;5051217;28;20037;-79
2022/04/03 00:26:00;;;;;;;1.30;0.70;;;;;;;10.38;46.57;101920.53;5051791;28;20131;-79
2022/04/03 00:28:28;;;;;;;1.10;0.70;;;;;;;10.38;47.58;101924.00;5052336;28;20725;-78
2022/04/03 00:30:54;;;;;;;1.40;0.80;;;;;;;10.37;46.96;101921.47;5041073;28;20194;-80
2022/04/03 00:33:21;;;;;;;1.48;0.73;;;;;;;10.37;47.19;101924.09;5044876;28;20333;-80
2022/04/03 00:35:50;;;;;;;1.42;0.73;;;;;;;10.37;46.21;101926.72;5064850;28;20036;-79
2022/04/03 00:38:16;;;;;;;1.23;0.70;;;;;;;10.37;46.63;101920.63;5058221;28;20052;-79
2022/04/03 00:40:44;;;;;;;1.55;0.80;;;;;;;10.37;47.23;101912.72;5064225;28;20043;-80
2022/04/03 00:43:12;;;;;;;1.50;0.85;;;;;;;10.37;46.29;101915.38;5051097;28;20103;-78
2022/04/03 00:45:39;;;;;;;1.25;0.80;;;;;;;10.37;47.09;101923.25;5053162;28;20047;-79
2022/04/03 00:48:06;;;;;;;1.75;0.73;;;;;;;10.37;46.75;101913.59;5056740;28;20052;-79
2022/04/03 00:50:33;;;;;;;1.63;0.70;;;;;;;10.35;46.75;101923.34;5052722;28;20036;-79
2022/04/03 00:53:00;;;;;;;1.48;0.88;;;;;;;10.35;47.21;101919.84;5048322;28;20055;-78
2022/04/03 00:55:27;;;;;;;1.50;0.85;;;;;;;10.34;46.32;101929.53;5049309;28;20055;-79
2022/04/03 00:57:54;;;;;;;1.40;0.80;;;;;;;10.35;46.46;101920.72;5049681;28;20061;-78
2022/04/03 01:00:21;;;;;;;1.80;0.90;;;;;;;10.35;47.18;101925.09;5053631;28;20065;-79
2022/04/03 01:02:48;;;;;;;1.95;0.80;;;;;;;10.35;46.43;101923.34;5054179;28;20085;-79
2022/04/03 01:05:15;;;;;;;1.88;0.90;;;;;;;10.34;46.21;101924.28;5043404;28;20044;-79
2022/04/03 01:07:42;;;;;;;1.83;0.90;;;;;;;10.33;47.42;101922.59;5072665;28;20029;-79
2022/04/03 01:10:09;;;;;;;1.50;0.80;;;;;;;10.34;46.41;101923.44;5068254;28;20040;-79
2022/04/03 01:12:39;;;;;;;1.25;0.80;;;;;;;10.33;46.94;101930.47;5054827;28;20479;-79
2022/04/03 01:15:07;;;;;;;2.20;0.90;;;;;;;10.34;46.70;101926.06;5036560;28;20048;-80
2022/04/03 01:17:37;;;;;;;1.98;0.90;;;;;;;10.32;46.60;101926.13;5055150;28;20039;-79
2022/04/03 01:20:04;;;;;;;2.00;0.90;;;;;;;10.32;46.69;101920.88;5053703;28;20037;-79
2022/04/03 01:22:31;;;;;;;1.17;0.80;;;;;;;10.32;46.96;101923.50;5035778;28;20123;-80
2022/04/03 01:24:59;;;;;;;1.60;1.00;;;;;;;10.33;47.31;101921.75;5055148;28;20047;-79
2022/04/03 01:27:25;;;;;;;1.73;1.00;;;;;;;10.33;47.29;101927.00;5037056;28;20741;-79
2022/04/03 01:29:53;;;;;;;2.67;1.13;;;;;;;10.32;47.47;101922.69;5054929;28;20056;-80
2022/04/03 01:32:20;;;;;;;1.10;0.73;;;;;;;10.32;47.11;101914.81;5054935;28;20221;-79
2022/04/03 01:34:47;;;;;;;2.63;1.08;;;;;;;10.31;46.43;101924.44;5053432;28;20107;-79
2022/04/03 01:37:14;;;;;;;1.63;0.88;;;;;;;10.32;46.80;101920.06;5041188;28;20059;-79
2022/04/03 01:39:40;;;;;;;1.27;0.80;;;;;;;10.30;47.40;101922.75;5062856;28;20036;-78
2022/04/03 01:42:09;;;;;;;1.90;0.90;;;;;;;10.32;47.40;101920.88;5059477;28;20032;-80
2022/04/03 01:44:36;;;;;;;1.42;0.80;;;;;;;10.30;46.43;101922.75;5062483;28;20040;-79
2022/04/03 01:47:03;;;;;;;2.08;0.95;;;;;;;10.31;46.46;101923.63;5059460;28;20047;-79
2022/04/03 01:49:30;;;;;;;2.17;1.10;;;;;;;10.30;46.96;101912.25;5054521;28;20047;-80
2022/04/03 01:51:56;;;;;;;1.60;0.93;;;;;;;10.31;46.78;101918.38;5053161;28;20082;-79
2022/04/03 01:54:23;;;;;;;2.03;0.90;;;;;;;10.30;47.48;101912.25;5057817;28;20040;-79
2022/04/03 01:56:49;;;;;;;1.80;0.85;;;;;;;10.30;46.74;101912.25;5054039;28;20039;-79
2022/04/03 01:59:18;;;;;;;1.48;0.90;;;;;;;10.28;47.09;101913.28;5049624;28;20056;-79
2022/04/03 02:01:44;;;;;;;1.83;0.95;;;;;;;10.29;46.78;101907.97;5052594;28;20071;-79
2022/04/03 02:04:12;;;;;;;1.65;0.88;;;;;;;10.29;47.41;101909.72;5040068;28;20124;-80
2022/04/03 02:06:39;;;;;;;1.60;0.70;;;;;;;10.29;47.39;101909.72;5051998;28;20084;-79
2022/04/03 02:09:07;;;;;;;1.70;0.90;;;;;;;10.28;47.13;101906.25;5048860;28;20063;-79
2022/04/03 02:11:36;;;;;;;1.73;0.80;;;;;;;10.28;46.70;101911.53;5048995;28;20076;-79
2022/04/03 02:14:02;;;;;;;1.33;0.80;;;;;;;10.29;46.39;101907.09;5050486;28;20060;-79
2022/04/03 02:16:30;;;;;;;2.22;1.00;;;;;;;10.27;47.64;101907.19;5055934;28;20107;-79
2022/04/03 02:18:57;;;;;;;1.80;0.80;;;;;;;10.28;47.62;101908.03;5020157;28;20055;-79
2022/04/03 02:21:24;;;;;;;1.63;0.80;;;;;;;10.28;47.56;101913.28;5041891;28;20040;-79
2022/04/03 02:23:51;;;;;;;1.85;0.88;;;;;;;10.26;46.96;101908.13;5058600;28;20047;-79
2022/04/03 02:26:18;;;;;;;1.63;0.80;;;;;;;10.27;47.22;101906.34;5055200;28;20048;-79
2022/04/03 02:28:45;;;;;;;1.60;0.80;;;;;;;10.26;46.85;101913.38;5049175;28;20040;-80
2022/04/03 02:31:11;;;;;;;1.02;0.60;;;;;;;10.27;46.43;101911.59;5053206;28;20122;-78
2022/04/03 02:33:39;;;;;;;0.98;0.70;;;;;;;10.25;47.51;101913.47;5033073;28;20055;-80
2022/04/03 02:36:06;;;;;;;1.33;0.70;;;;;;;10.25;46.92;101903.81;5044248;28;20037;-79
2022/04/03 02:38:34;;;;;;;1.50;0.80;;;;;;;10.26;47.38;101912.56;5055962;28;20040;-79
2022/04/03 02:41:00;;;;;;;2.35;0.70;;;;;;;10.25;47.10;101909.06;5059259;28;20044;-78
2022/04/03 02:43:27;;;;;;;1.58;0.80;;;;;;;10.25;46.71;101914.31;5052676;28;20286;-80
2022/04/03 02:45:54;;;;;;;1.33;0.77;;;;;;;10.25;46.95;101910.84;5054482;28;20069;-79
2022/04/03 02:48:20;;;;;;;1.33;0.75;;;;;;;10.24;47.47;101910.00;5055743;28;20044;-80
2022/04/03 02:50:48;;;;;;;1.40;0.60;;;;;;;10.25;47.45;101918.72;5060747;28;20048;-80
2022/04/03 02:53:15;;;;;;;1.58;0.75;;;;;;;10.24;47.38;101909.16;5056211;28;20048;-79
2022/04/03 02:55:42;;;;;;;1.50;0.70;;;;;;;10.24;46.96;101909.16;5062948;28;20377;-79
2022/04/03 02:58:08;;;;;;;1.30;0.82;;;;;;;10.22;47.07;101909.22;5038948;28;20143;-79
2022/04/03 03:00:35;;;;;;;2.08;0.90;;;;;;;10.23;46.59;101910.94;5067161;28;20380;-79
2022/04/03 03:03:02;;;;;;;1.17;0.70;;;;;;;10.22;47.62;101909.22;5076372;28;20083;-79
2022/04/03 03:05:29;;;;;;;1.95;0.80;;;;;;;10.23;47.85;101920.59;5074493;28;20037;-79
2022/04/03 03:07:57;;;;;;;2.05;0.70;;;;;;;10.22;47.03;101911.84;5063341;28;20079;-78
2022/04/03 03:10:31;;;;;;;1.58;0.70;;;;;;;10.23;47.58;101907.47;5059837;28;20059;-77
2022/04/03 03:12:58;;;;;;;1.92;0.80;;;;;;;10.22;47.04;101903.16;5055450;28;20131;-79
2022/04/03 03:15:24;;;;;;;2.67;0.80;;;;;;;10.22;46.97;101914.47;5061230;28;20048;-79
2022/04/03 03:17:51;;;;;;;2.13;0.73;;;;;;;10.21;46.88;101917.22;5065868;28;20043;-79
2022/04/03 03:20:18;;;;;;;1.30;0.70;;;;;;;10.21;47.04;101923.31;5081007;28;20036;-78
2022/04/03 03:22:45;;;;;;;1.63;0.80;;;;;;;10.21;47.64;101917.22;5045299;28;20092;-79
2022/04/03 03:25:13;;;;;;;1.65;0.80;;;;;;;10.21;47.49;101914.59;5054614;28;20516;-79
2022/04/03 03:27:40;;;;;;;1.35;0.77;;;;;;;10.20;47.08;101926.03;5053465;28;20054;-79
2022/04/03 03:30:08;;;;;;;1.58;0.93;;;;;;;10.20;47.44;101919.00;5054452;28;20044;-79
2022/04/03 03:32:36;;;;;;;1.08;0.73;;;;;;;10.20;46.93;101916.38;5033919;28;20457;-79
2022/04/03 03:35:03;;;;;;;1.73;0.90;;;;;;;10.21;47.57;101922.47;5056493;28;20048;-79
2022/04/03 03:37:30;;;;;;;1.30;0.70;;;;;;;10.20;46.93;101913.75;5055232;28;20055;-80
2022/04/03 03:39:57;;;;;;;1.48;0.80;;;;;;;10.20;46.89;101920.75;5050931;28;20048;-79
2022/04/03 03:42:25;;;;;;;1.20;0.80;;;;;;;10.19;47.49;101919.06;5052725;28;20040;-80
2022/04/03 03:44:52;;;;;;;1.33;0.73;;;;;;;10.20;47.87;101915.50;5049325;28;20120;-79
2022/04/03 03:47:20;;;;;;;1.20;0.68;;;;;;;10.19;47.54;101922.56;5034839;28;20048;-79
2022/04/03 03:49:47;;;;;;;1.20;0.70;;;;;;;10.19;47.85;101926.94;5035646;28;20184;-78
2022/04/03 03:52:13;;;;;;;1.50;0.70;;;;;;;10.18;47.38;101928.75;5071075;28;20095;-79
2022/04/03 03:54:40;;;;;;;1.23;0.80;;;;;;;10.18;47.05;101933.16;5063569;28;20056;-79
2022/04/03 03:57:07;;;;;;;1.20;0.75;;;;;;;10.17;47.63;101932.31;5049422;28;20124;-79
2022/04/03 03:59:37;;;;;;;1.17;0.80;;;;;;;10.18;47.74;101933.16;5052791;28;20090;-79
2022/04/03 04:02:04;;;;;;;1.52;0.82;;;;;;;10.18;47.42;101938.41;5051234;28;20060;-78
2022/04/03 04:04:30;;;;;;;1.58;0.77;;;;;;;10.17;47.03;101937.56;5056541;28;20119;-79
2022/04/03 04:06:57;;;;;;;1.70;0.73;;;;;;;10.18;47.69;101938.41;5055479;28;20036;-79
2022/04/03 04:09:24;;;;;;;1.27;0.70;;;;;;;10.17;46.90;101942.81;5035526;28;20109;-79
2022/04/03 04:11:52;;;;;;;2.10;0.80;;;;;;;10.15;47.42;101934.16;5038333;28;20055;-79
2022/04/03 04:14:19;;;;;;;1.65;0.90;;;;;;;10.16;47.30;101941.13;5052981;28;20055;-79
2022/04/03 04:16:47;;;;;;;2.08;1.00;;;;;;;10.15;47.14;101934.16;5049758;28;20049;-79
2022/04/03 04:19:14;;;;;;;1.48;0.80;;;;;;;10.15;47.54;101934.16;5054740;28;20060;-79
2022/04/03 04:21:40;;;;;;;2.58;0.80;;;;;;;10.14;47.79;101935.09;5046788;28;20094;-78
2022/04/03 04:24:07;;;;;;;1.88;0.70;;;;;;;10.14;47.42;101942.97;5052722;28;20064;-79
2022/04/03 04:26:35;;;;;;;1.25;0.75;;;;;;;10.15;47.51;101938.59;5053772;28;20047;-79
2022/04/03 04:29:04;;;;;;;1.92;0.93;;;;;;;10.15;47.77;101941.22;5032633;28;20044;-80
2022/04/03 04:31:30;;;;;;;1.65;0.77;;;;;;;10.13;47.12;101936.06;5056997;28;20136;-78
2022/04/03 04:33:59;;;;;;;1.42;0.80;;;;;;;10.13;47.17;101936.06;5053915;28;20044;-79
2022/04/03 04:36:26;;;;;;;1.15;0.70;;;;;;;10.14;47.85;101942.97;5040945;28;20043;-79
2022/04/03 04:38:54;;;;;;;3.38;0.90;;;;;;;10.13;47.68;101940.44;5052413;28;20048;-79
2022/04/03 04:41:20;;;;;;;2.10;0.90;;;;;;;10.13;48.11;101945.69;5057291;28;20123;-79
2022/04/03 04:43:47;;;;;;;1.42;0.82;;;;;;;10.12;47.72;101947.50;5034929;28;20040;-79
2022/04/03 04:46:14;;;;;;;1.70;0.80;;;;;;;10.13;46.95;101953.56;5041955;28;20078;-78
2022/04/03 04:48:40;;;;;;;1.30;0.70;;;;;;;10.12;47.87;101947.50;5055795;28;20037;-79
2022/04/03 04:51:09;;;;;;;1.83;0.90;;;;;;;10.13;46.96;101950.94;5055377;28;20141;-78
2022/04/03 04:53:35;;;;;;;2.13;0.93;;;;;;;10.11;47.29;101950.19;5060111;28;20036;-78
2022/04/03 04:56:02;;;;;;;1.20;0.80;;;;;;;10.11;47.03;101953.69;5037251;28;20037;-79
2022/04/03 04:58:29;;;;;;;1.33;0.70;;;;;;;10.11;48.06;101958.06;5072675;28;20092;-79
2022/04/03 05:00:57;;;;;;;2.10;0.90;;;;;;;10.10;47.07;101962.47;5067365;28;20076;-79
2022/04/03 05:03:24;;;;;;;1.40;0.90;;;;;;;10.10;46.79;101959.84;5028903;28;20063;-78
2022/04/03 05:05:50;;;;;;;2.10;0.68;;;;;;;10.08;46.86;101961.72;5058364;28;20129;-79
2022/04/03 05:08:19;;;;;;;2.15;0.70;;;;;;;10.10;47.32;101966.88;5052141;28;20481;-79
2022/04/03 05:10:46;;;;;;;1.63;0.80;;;;;;;10.10;46.87;101972.13;5053918;28;20068;-78
2022/04/03 05:13:12;;;;;;;1.35;0.70;;;;;;;10.10;47.75;101986.13;5046558;28;20056;-79
2022/04/03 05:15:39;;;;;;;1.67;0.90;;;;;;;10.10;47.36;101983.47;5058366;28;20064;-78
2022/04/03 05:18:06;;;;;;;1.75;0.85;;;;;;;10.09;47.02;101976.53;5053211;28;20048;-79
2022/04/03 05:20:33;;;;;;;1.88;0.80;;;;;;;10.09;46.97;101978.34;5042115;28;20037;-78
2022/04/03 05:23:00;;;;;;;1.92;1.00;;;;;;;10.07;47.81;101981.03;5041280;28;20044;-79
2022/04/03 05:25:28;;;;;;;1.70;0.80;;;;;;;10.08;48.15;101980.09;5056061;28;20128;-78
2022/04/03 05:27:55;;;;;;;1.50;0.90;;;;;;;10.07;47.63;101983.66;5053093;28;20037;-79
2022/04/03 05:30:22;;;;;;;2.13;1.00;;;;;;;10.08;47.00;101989.75;5058287;28;20056;-79
2022/04/03 05:32:49;;;;;;;1.85;0.95;;;;;;;10.08;47.68;101984.50;5050523;28;20053;-78
2022/04/03 05:35:16;;;;;;;1.73;0.95;;;;;;;10.07;47.21;101988.91;5055224;28;20097;-78
2022/04/03 05:37:42;;;;;;;1.80;0.80;;;;;;;10.07;47.88;101983.66;5049264;28;20037;-79
2022/04/03 05:40:12;;;;;;;2.58;1.00;;;;;;;10.07;47.60;101998.56;5051396;28;20562;-78
2022/04/03 05:42:40;;;;;;;1.85;0.88;;;;;;;10.06;48.15;101987.19;5055787;28;20101;-78
2022/04/03 05:45:08;;;;;;;2.08;1.00;;;;;;;10.07;47.92;101998.56;5058117;28;20087;-79
2022/04/03 05:47:35;;;;;;;1.88;1.00;;;;;;;10.06;47.36;102002.97;5055655;28;21571;-78
2022/04/03 05:50:02;;;;;;;1.42;0.90;;;;;;;10.06;47.72;101999.50;5053022;28;20122;-79
2022/04/03 05:52:39;;;;;;;1.40;0.90;;;;;;;10.06;46.96;102000.34;5059717;28;20066;-78
2022/04/03 05:55:08;;;;;;;1.15;0.75;;;;;;;10.06;47.66;102002.13;5058337;28;20110;-78
2022/04/03 05:57:36;;;;;;;2.13;0.80;;;;;;;10.06;47.73;102008.22;5064849;28;20048;-79
2022/04/03 06:00:07;;;;;;;1.58;1.00;;;;;;;10.06;47.37;102012.63;5068234;28;20053;-79
2022/04/03 06:02:46;;;;;;;2.75;0.90;;;;;;;10.04;47.23;102012.72;5074760;28;20031;-79
2022/04/03 06:05:13;;;;;;;1.25;0.80;;;;;;;10.07;47.05;102011.69;5039517;28;20060;-78
2022/04/03 06:07:40;;;;;;;1.48;0.98;;;;;;;10.06;47.00;102007.38;5066743;28;20098;-79
2022/04/03 06:10:07;;;;;;;1.58;0.98;;;;;;;10.04;47.13;102015.34;5064653;28;20072;-79
2022/04/03 06:12:34;;;;;;;1.63;0.80;;;;;;;10.06;46.78;102018.72;5056529;28;20036;-79
2022/04/03 06:15:00;;;;;;;1.60;0.93;;;;;;;10.06;47.15;102020.50;5058863;28;20144;-77
2022/04/03 06:17:28;;;;;;;1.27;0.88;;;;;;;10.05;47.07;102017.03;5052070;28;20072;-78
2022/04/03 06:19:55;;;;;;;1.60;0.85;;;;;;;10.06;47.76;102023.13;5054188;28;20040;-79
2022/04/03 06:22:22;;;;;;;1.42;0.80;;;;;;;10.05;47.95;102018.81;5056535;28;20052;-78
2022/04/03 06:24:48;;;;;;;1.80;0.90;;;;;;;10.05;46.79;102016.19;5055503;28;20101;-79
2022/04/03 06:27:15;;;;;;;1.95;1.00;;;;;;;10.06;47.36;102021.34;5058046;28;20040;-78
2022/04/03 06:29:41;;;;;;;1.48;0.80;;;;;;;10.05;48.00;102022.28;5055081;28;20041;-78
2022/04/03 06:32:09;;;;;;;1.67;0.90;;;;;;;10.06;47.26;102017.88;5052316;28;20045;-78
2022/04/03 06:34:41;;;;;;;1.77;1.00;;;;;;;10.06;48.07;102018.72;5053925;28;20643;-77
2022/04/03 06:37:07;;;;;;;2.00;1.00;;;;;;;10.06;46.69;102023.13;5051623;28;20041;-77
2022/04/03 06:39:36;;;;;;;1.60;0.80;;;;;;;10.06;47.62;102017.88;5057994;28;20049;-78
2022/04/03 06:42:04;;;;;;;2.47;0.90;;;;;;;10.06;47.21;102026.59;5059449;28;20083;-78
2022/04/03 06:44:31;;;;;;;1.60;0.90;;;;;;;10.05;47.64;102024.91;5054796;28;20128;-78
2022/04/03 06:46:58;;;;;;;1.45;0.90;;;;;;;10.07;47.83;102025.66;5057212;28;20064;-77
2022/04/03 06:49:24;;;;;;;2.15;0.95;;;;;;;10.07;47.26;102024.81;5060729;28;20033;-77
2022/04/03 06:51:52;;;;;;;2.40;1.13;;;;;;;10.08;47.46;102022.09;5065750;28;20036;-77
2022/04/03 06:54:18;;;;;;;1.98;0.95;;;;;;;10.07;46.90;102023.03;5071510;28;20766;-76
2022/04/03 06:56:45;;;;;;;1.88;0.98;;;;;;;10.08;46.95;102027.34;5062979;28;20041;-78
2022/04/03 06:59:12;;;;;;;1.15;0.80;;;;;;;10.08;47.39;102031.78;5058881;28;20044;-78
2022/04/03 07:01:39;;;;;;;1.25;0.80;;;;;;;10.10;46.89;102025.50;5056540;28;20110;-78
2022/04/03 07:04:05;;;;;;;2.05;0.95;;;;;;;10.11;47.55;102031.56;5056045;28;20051;-79
2022/04/03 07:06:32;;;;;;;1.70;1.00;;;;;;;10.11;46.88;102026.31;5053677;28;20041;-78
2022/04/03 07:09:00;;;;;;;2.17;1.00;;;;;;;10.12;47.21;102023.63;5054599;28;20060;-78
2022/04/03 07:11:26;;;;;;;2.10;0.88;;;;;;;10.12;47.87;102026.25;5055886;28;20456;-78
2022/04/03 07:13:53;;;;;;;2.30;1.00;;;;;;;10.12;47.19;102020.16;5053153;28;20636;-79
2022/04/03 07:16:21;;;;;;;1.80;1.10;;;;;;;10.14;47.26;102027.00;5055265;28;20052;-78
2022/04/03 07:18:48;;;;;;;2.72;1.00;;;;;;;10.15;47.43;102031.31;5056092;28;20037;-77
2022/04/03 07:21:14;;;;;;;1.52;0.95;;;;;;;10.16;47.54;102024.31;5053055;28;20158;-79
2022/04/03 07:23:42;;;;;;;2.33;1.10;;;;;;;10.17;47.10;102026.00;5054278;28;20040;-78
2022/04/03 07:26:09;;;;;;;1.60;1.10;;;;;;;10.17;47.22;102032.09;5051601;28;20040;-78
2022/04/03 07:28:36;;;;;;;2.67;1.27;;;;;;;10.18;47.35;102028.53;5050544;28;20041;-78
2022/04/03 07:31:03;;;;;;;1.48;1.08;;;;;;;10.20;46.84;102025.81;5053980;28;20056;-78
2022/04/03 07:33:29;;;;;;;2.45;1.10;;;;;;;10.20;47.51;102029.28;5054080;28;20497;-78
2022/04/03 07:35:56;;;;;;;3.60;1.02;;;;;;;10.21;47.34;102031.00;5052033;28;20041;-80
2022/04/03 07:38:23;;;;;;;1.70;1.00;;;;;;;10.22;47.38;102035.28;5053774;28;20063;-79
2022/04/03 07:40:50;;;;;;;1.95;1.00;;;;;;;10.23;46.75;102033.53;5051687;28;20097;-78
2022/04/03 07:43:18;;;;;;;1.70;1.10;;;;;;;10.23;47.08;102025.63;5056918;28;20098;-77
2022/04/03 07:45:44;;;;;;;7.78;1.20;;;;;;;10.29;46.95;102036.66;5046755;28;20045;-82
2022/04/03 07:48:11;;;;;;;3.45;1.02;;;;;;;10.31;47.36;102033.94;5057575;28;20040;-78
2022/04/03 07:50:38;;;;;;;5.15;0.93;;;;;;;10.34;47.97;102029.34;5055424;28;20047;-80
2022/04/03 07:53:06;;;;;;;3.03;1.25;;;;;;;10.16;46.68;102040.06;5054167;28;20041;-80
2022/04/03 07:55:32;;;;;;;9.30;1.92;;;;;;;9.85;46.69;102040.91;5056003;28;20040;-79
2022/04/03 08:27:22;;;;;;;3.58;1.25;;;10.70;60.00;;;;;;5036369;27;20819;-77
2022/04/03 08:30:11;;;;;;;4.40;1.60;;;10.50;55.70;;;;;;5067990;28;20059;-72
2022/04/03 08:32:59;;;;;;;9.27;1.58;;;10.30;56.10;;;;;;5072354;28;20047;-75
2022/04/03 08:35:28;;;;;;;6.22;1.30;;;10.20;56.00;;;;;;5069029;28;20063;-73
2022/04/03 08:37:55;;;;;;;5.45;1.27;;;10.20;55.90;;;;;;5076719;28;20040;-75
2022/04/03 08:40:23;;;;;;;3.13;1.10;;;10.10;55.90;;;;;;5080097;28;20102;-73
2022/04/03 08:42:54;;;;;;;2.97;1.20;;;10.10;55.80;;;;;;5083145;28;20024;-77
2022/04/03 08:45:22;;;;;;;2.47;1.30;;;10.10;55.80;;;;;;5087423;28;20037;-73
2022/04/03 08:47:50;;;;;;;4.28;1.20;;;10.00;55.70;;;;;;5087626;28;20051;-76
2022/04/03 08:50:20;;;;;;;3.05;1.05;;;10.10;55.80;;;;;;5094216;28;20032;-75
2022/04/03 08:52:49;;;;;;;3.67;1.15;;;10.00;55.80;;;;;;5089189;28;20062;-74
2022/04/03 08:55:17;;;;;;;3.42;0.82;;;10.00;55.80;;;;;;5091424;28;20040;-74
2022/04/03 08:57:44;;;;;;;3.28;1.00;;;10.00;55.50;;;;;;5075209;28;20067;-78
2022/04/03 09:00:14;;;;;;;3.38;0.90;;;10.00;55.50;;;;;;5056089;28;20087;-74
2022/04/03 09:02:41;;;;;;;2.53;1.00;;;9.90;56.00;;;;;;5073637;28;20059;-76
2022/04/03 09:05:10;;;;;;;3.35;1.00;;;9.90;55.80;;;;;;5065438;28;20060;-79
2022/04/03 09:07:37;;;;;;;2.78;0.80;;;9.90;55.90;;;;;;5052943;28;20040;-75
2022/04/03 09:10:08;;;;;;;2.50;0.90;;;9.90;55.60;;;;;;5074215;28;20211;-74
2022/04/03 09:12:46;;;;;;;2.72;0.90;;;9.90;56.00;;;;;;5053000;28;20080;-75
2022/04/03 09:15:19;;;;;;;2.42;0.90;;;9.90;56.10;;;;;;5070050;28;20044;-72
2022/04/03 09:17:49;;;;;;;4.22;0.98;;;9.90;56.10;;;;;;5072146;28;20102;-75
2022/04/03 09:20:18;;;;;;;2.25;0.70;;;9.90;56.00;;;;;;5066306;28;20418;-80
2022/04/03 09:22:46;;;;;;;1.98;0.75;;;9.90;55.80;;;;;;5073359;28;20080;-75
2022/04/03 09:25:16;;;;;;;1.63;0.70;;;9.90;55.70;;;;;;5066429;28;20059;-78
2022/04/03 09:27:48;;;;;;;2.17;0.70;;;9.90;55.60;;;;;;5066650;28;20098;-73
2022/04/03 09:30:19;;;;;;;3.00;0.73;;;10.00;54.60;;;;;;5070412;28;20051;-74
2022/04/03 09:32:50;;;;;;;3.00;0.70;;;10.00;54.60;;;;;;5074007;28;20106;-74
2022/04/03 09:35:19;;;;;;;2.85;0.80;;;10.00;54.60;;;;;;5067159;28;20047;-76
2022/04/03 09:38:05;;;;;;;2.60;0.90;;;10.00;54.60;;;;;;5063900;28;20517;-73
2022/04/03 09:40:34;;;;;;;4.57;0.80;;;10.00;54.60;;;;;;5049824;28;20483;-75
2022/04/03 09:43:16;;;;;;;1.75;0.77;;;10.00;54.70;;;;;;5053683;28;20040;-74
2022/04/03 09:45:48;;;;;;;;;;;10.00;54.60;;;;;;5039273;28;20151;-76
2022/04/03 09:48:48;;;;;;;1.67;0.68;;;10.10;54.50;;;;;;5056295;28;19927;-76
2022/04/03 09:51:24;;;;;;;1.75;0.77;;;10.10;54.70;;;;;;5058099;28;20041;-75
2022/04/03 09:53:53;;;;;;;3.03;0.80;;;10.10;54.60;;;;;;5059617;28;20036;-73
2022/04/03 09:56:31;;;;;;;1.25;0.52;;;10.10;54.60;;;;;;5036586;28;20097;-73
2022/04/03 09:59:04;;;;;;;;;;;10.20;54.60;;;;;;5032301;28;20052;-75
2022/04/03 10:01:34;;;;;;;1.83;0.90;;;10.20;54.90;;;;;;5059390;28;19926;-73
2022/04/03 10:04:01;;;;;;;1.60;0.55;;;10.20;54.70;;;;;;5053910;28;20048;-80
2022/04/03 10:06:29;;;;;;;1.63;0.70;;;10.20;54.90;;;;;;5061807;28;20032;-80
2022/04/03 10:08:56;;;;;;;1.25;0.60;;;10.20;54.80;;;;;;5050931;28;20037;-73
2022/04/03 10:11:23;;;;;;;1.95;0.65;;;10.20;54.60;;;;;;5060283;28;20071;-77
2022/04/03 10:13:50;;;;;;;2.75;0.80;;;10.20;54.40;;;;;;5054277;28;20043;-75
2022/04/03 10:16:19;;;;;;;2.78;0.77;;;10.20;54.60;;;;;;5055110;28;20546;-75
2022/04/03 10:18:51;;;;;;;1.50;0.68;;;10.20;54.40;;;;;;5056846;28;20138;-76
2022/04/03 10:21:25;;;;;;;7.05;0.75;;;10.20;54.60;;;;;;5057711;28;20706;-73
2022/04/03 10:23:57;;;;;;;8.07;0.80;;;10.20;55.00;;;;;;5059050;28;20789;-74
2022/04/03 10:26:25;;;;;;;4.45;0.90;;;10.40;56.00;;;;;;5059690;28;20071;-74
2022/04/03 10:28:56;;;;;;;7.20;0.77;;;10.40;56.00;;;;;;5060050;28;20033;-74
2022/04/03 10:31:23;;;;;;;5.88;0.90;;;10.30;56.00;;;;;;5041388;28;20124;-76
2022/04/03 10:33:52;;;;;;;3.63;0.80;;;10.30;56.00;;;;;;5057787;28;20090;-77
2022/04/03 10:36:25;;;;;;;2.75;0.60;;;10.30;56.10;;;;;;5059448;28;20074;-75
2022/04/03 10:39:01;;;;;;;5.40;0.85;;;10.30;56.00;;;;;;5062533;28;20048;-77
2022/04/03 10:41:29;;;;;;;2.38;0.70;;;10.30;56.20;;;;;;5059686;28;20040;-77
2022/04/03 10:44:18;;;;;;;4.57;1.13;;;10.30;56.30;;;;;;5064647;28;20044;-75
2022/04/03 10:47:21;;;;;;;4.03;1.05;;;10.30;56.50;;;;;;5067460;28;20104;-74
2022/04/03 10:49:58;;;;;;;1.85;0.88;;;10.30;56.60;;;;;;5051447;28;20056;-75
2022/04/03 10:52:27;;;;;;;4.80;1.02;;;10.30;56.70;;;;;;5052778;28;20076;-73
2022/04/03 10:54:56;;;;;;;4.10;0.80;;;10.30;56.60;;;;;;5050369;28;20471;-75
2022/04/03 10:57:37;;;;;;;3.00;1.00;;;10.30;56.80;;;;;;5058234;28;20040;-74
2022/04/03 11:00:36;;;;;;;2.20;0.70;;;10.30;56.70;;;;;;5054916;28;20089;-72
2022/04/03 11:03:34;;;;;;;3.92;0.80;;;10.30;56.70;;;;;;5036669;28;20040;-73
2022/04/03 11:06:22;;;;;;;2.95;0.70;;;10.30;57.10;;;;;;5055187;28;20040;-73
2022/04/03 11:09:14;;;;;;;1.40;0.65;;;10.30;56.90;;;;;;5039728;28;20143;-73
2022/04/03 11:11:55;;;;;;;2.20;0.80;;;10.30;56.90;;;;;;5048952;28;20036;-74
2022/04/03 11:14:55;;;;;;;2.03;0.70;;;10.30;56.90;;;;;;5055473;28;20048;-74
2022/04/03 11:17:45;;;;;;;2.67;0.80;;;10.30;57.00;;;;;;5053487;28;20115;-76
2022/04/03 11:20:39;;;;;;;3.30;0.70;;;10.30;57.10;;;;;;5055087;28;20036;-73
2022/04/03 11:23:11;;;;;;;1.58;0.73;;;10.30;57.00;;;;;;5049757;28;20044;-78
2022/04/03 11:25:39;;;;;;;1.88;0.68;;;10.30;57.10;;;;;;5059908;28;20052;-73
2022/04/03 11:28:08;;;;;;;2.10;0.85;;;10.30;57.10;;;;;;5057321;28;20044;-77
2022/04/03 11:30:36;;;;;;;1.73;0.60;;;10.30;57.20;;;;;;5052755;28;20052;-73
2022/04/03 11:33:04;;;;;;;1.58;0.60;;;10.30;57.30;;;;;;5054262;28;20039;-72
2022/04/03 11:35:35;;;;;;;3.10;0.80;;;10.40;57.90;;;;;;5055982;28;20044;-79
2022/04/03 11:38:02;;;;;;;2.20;0.60;;;10.40;58.60;;;;;;5053909;28;20045;-76
2022/04/03 11:40:31;;;;;;;1.30;0.50;;;10.40;58.40;;;;;;5050456;28;20048;-73
2022/04/03 11:43:15;;;;;;;3.47;0.50;;;10.40;59.20;;;;;;5034820;28;20056;-73
2022/04/03 11:45:50;;;;;;;1.63;0.40;;;10.40;59.40;;;;;;5033076;28;20052;-73
2022/04/03 11:48:20;;;;;;;2.90;0.50;;;10.40;59.30;;;;;;5045611;28;20048;-76
2022/04/03 11:50:48;;;;;;;1.40;0.70;;;10.40;59.30;;;;;;5022269;28;20144;-74
2022/04/03 11:53:15;;;;;;;2.17;0.57;;;10.40;59.60;;;;;;5048927;28;20075;-76
2022/04/03 11:55:43;;;;;;;1.65;0.60;;;10.40;60.00;;;;;;5025151;28;20067;-76
2022/04/03 11:58:10;;;;;;;2.28;0.60;;;10.40;59.90;;;;;;5037144;28;20052;-75
2022/04/03 12:00:45;;;;;;;1.27;0.50;;;10.40;59.80;;;;;;5045591;28;20056;-75
2022/04/03 12:03:12;;;;;;;2.38;0.50;;;10.40;60.20;;;;;;5056806;28;20066;-79
2022/04/03 12:05:41;;;;;;;2.65;0.68;;;10.40;59.90;;;;;;5046151;28;20032;-73
2022/04/03 12:08:08;;;;;;;1.10;0.60;;;10.40;60.10;;;;;;5055081;28;20039;-73
2022/04/03 12:10:36;;;;;;;1.75;0.45;;;10.40;59.90;;;;;;5032586;28;20041;-74
2022/04/03 12:13:07;;;;;;;3.10;0.50;;;10.40;60.90;;;;;;5053387;28;20060;-75
2022/04/03 12:15:36;;;;;;;1.98;0.55;;;10.40;60.00;;;;;;5049751;28;20049;-76
2022/04/03 12:18:03;;;;;;;2.00;0.60;;;10.30;59.90;;;;;;5052640;28;20048;-73
2022/04/03 12:20:36;;;;;;;3.35;0.50;;;10.40;60.30;;;;;;5051441;28;20539;-75
2022/04/03 12:23:07;;;;;;;;;;;10.40;60.60;;;;;;5050543;28;20135;-74
2022/04/03 12:25:34;;;;;;;1.27;0.57;;;10.40;60.40;;;;;;5039426;28;19920;-75
2022/04/03 12:28:01;;;;;;;1.33;0.50;;;10.40;60.20;;;;;;5053008;28;20052;-74
2022/04/03 12:30:32;;;;;;;2.80;0.60;;;10.30;60.20;;;;;;5055694;28;20120;-74